sensor_id;sensor_type;location;lat;lon;timestamp;pressure;altitude;pressure_sealevel;temperature;humidity
55217;BME280;41086;46.736;15.666;2024-02-26T00:00:37;97343.91;;;6.75;90.96
55217;BME280;41086;46.736;15.666;2024-02-26T00:03:04;97408.34;;;6.95;92.31
55217;BME280;41086;46.736;15.666;2024-02-26T00:05:31;97388.72;;;6.37;95.02
55217;BME280;41086;46.736;15.666;2024-02-26T00:07:58;97409.88;;;6.22;98.84
55217;BME280;41086;46.736;15.666;2024-02-26T00:10:29;97312.53;;;5.44;100.00
55217;BME280;41086;46.736;15.666;2024-02-26T00:12:56;97381.34;;;6.16;100.00
55217;BME280;41086;46.736;15.666;2024-02-26T00:15:23;97241.50;;;5.59;100.00
55217;BME280;41086;46.736;15.666;2024-02-26T00:17:52;97405.19;;;6.77;99.10
55217;BME280;41086;46.736;15.666;2024-02-26T00:20:19;97398.66;;;6.96;100.00
55217;BME280;41086;46.736;15.666;2024-02-26T00:22:47;97387.44;;;7.05;97.19
55217;BME280;41086;46.736;15.666;2024-02-26T00:25:14;97271.25;;;6.36;94.96
55217;BME280;41086;46.736;15.666;2024-02-26T00:27:41;97391.91;;;6.92;96.44
55217;BME280;41086;46.736;15.666;2024-02-26T00:30:08;97399.94;;;6.64;93.02
55217;BME280;41086;46.736;15.666;2024-02-26T00:32:35;97392.94;;;6.14;98.35
55217;BME280;41086;46.736;15.666;2024-02-26T00:35:02;97390.91;;;6.17;99.16
55217;BME280;41086;46.736;15.666;2024-02-26T00:37:32;97391.34;;;6.11;100.00
55217;BME280;41086;46.736;15.666;2024-02-26T00:39:59;97364.97;;;5.86;100.00
55217;BME280;41086;46.736;15.666;2024-02-26T00:42:26;97395.38;;;5.90;100.00
55217;BME280;41086;46.736;15.666;2024-02-26T00:44:53;97385.44;;;5.28;100.00
55217;BME280;41086;46.736;15.666;2024-02-26T00:47:20;97388.38;;;5.09;100.00
55217;BME280;41086;46.736;15.666;2024-02-26T00:49:46;97367.03;;;5.01;100.00
55217;BME280;41086;46.736;15.666;2024-02-26T00:52:15;97384.19;;;5.33;100.00
55217;BME280;41086;46.736;15.666;2024-02-26T00:54:41;97378.66;;;5.51;100.00
55217;BME280;41086;46.736;15.666;2024-02-26T00:57:08;97342.78;;;5.37;100.00
55217;BME280;41086;46.736;15.666;2024-02-26T00:59:35;97370.34;;;5.17;100.00
55217;BME280;41086;46.736;15.666;2024-02-26T01:02:02;97325.06;;;4.72;100.00
55217;BME280;41086;46.736;15.666;2024-02-26T01:04:30;97370.56;;;5.14;100.00
55217;BME280;41086;46.736;15.666;2024-02-26T01:06:57;97333.84;;;5.27;100.00
55217;BME280;41086;46.736;15.666;2024-02-26T01:09:24;97348.69;;;5.41;100.00
55217;BME280;41086;46.736;15.666;2024-02-26T01:11:51;97358.19;;;5.56;100.00
55217;BME280;41086;46.736;15.666;2024-02-26T01:14:18;97363.84;;;5.50;100.00
55217;BME280;41086;46.736;15.666;2024-02-26T01:16:45;97364.97;;;5.73;100.00
55217;BME280;41086;46.736;15.666;2024-02-26T01:19:11;97352.16;;;5.94;99.90
55217;BME280;41086;46.736;15.666;2024-02-26T01:21:39;97354.25;;;5.89;98.80
55217;BME280;41086;46.736;15.666;2024-02-26T01:24:05;97320.59;;;5.81;99.12
55217;BME280;41086;46.736;15.666;2024-02-26T01:26:32;97350.19;;;6.10;98.02
55217;BME280;41086;46.736;15.666;2024-02-26T01:28:59;97353.47;;;6.14;98.18
55217;BME280;41086;46.736;15.666;2024-02-26T01:31:26;97361.34;;;6.14;97.83
55217;BME280;41086;46.736;15.666;2024-02-26T01:33:55;97356.19;;;6.12;99.28
55217;BME280;41086;46.736;15.666;2024-02-26T01:36:22;97358.81;;;6.38;98.68
55217;BME280;41086;46.736;15.666;2024-02-26T01:38:48;97348.16;;;6.52;97.09
55217;BME280;41086;46.736;15.666;2024-02-26T01:41:15;97323.66;;;6.52;95.60
55217;BME280;41086;46.736;15.666;2024-02-26T01:43:42;97349.69;;;6.68;94.11
55217;BME280;41086;46.736;15.666;2024-02-26T01:46:14;97327.09;;;6.65;92.86
55217;BME280;41086;46.736;15.666;2024-02-26T01:48:42;97334.19;;;6.76;92.57
55217;BME280;41086;46.736;15.666;2024-02-26T01:51:12;97314.88;;;6.51;91.89
55217;BME280;41086;46.736;15.666;2024-02-26T01:53:41;97348.19;;;6.39;94.65
55217;BME280;41086;46.736;15.666;2024-02-26T01:56:08;97294.72;;;6.13;94.11
55217;BME280;41086;46.736;15.666;2024-02-26T01:58:35;97344.66;;;6.64;95.43
55217;BME280;41086;46.736;15.666;2024-02-26T02:01:03;97344.31;;;6.07;92.41
55217;BME280;41086;46.736;15.666;2024-02-26T02:03:30;97342.13;;;5.61;93.55
55217;BME280;41086;46.736;15.666;2024-02-26T02:05:57;97341.66;;;4.87;96.76
55217;BME280;41086;46.736;15.666;2024-02-26T02:08:24;97330.44;;;4.71;100.00
55217;BME280;41086;46.736;15.666;2024-02-26T02:10:51;97300.44;;;5.02;100.00
55217;BME280;41086;46.736;15.666;2024-02-26T02:13:18;97329.00;;;5.33;99.35
55217;BME280;41086;46.736;15.666;2024-02-26T02:15:45;97319.34;;;4.38;100.00
55217;BME280;41086;46.736;15.666;2024-02-26T02:18:12;97319.06;;;3.86;100.00
55217;BME280;41086;46.736;15.666;2024-02-26T02:20:39;97303.50;;;3.68;100.00
55217;BME280;41086;46.736;15.666;2024-02-26T02:23:06;97323.47;;;4.28;100.00
55217;BME280;41086;46.736;15.666;2024-02-26T02:25:33;97318.75;;;3.76;100.00
55217;BME280;41086;46.736;15.666;2024-02-26T02:28:00;97310.03;;;4.47;100.00
55217;BME280;41086;46.736;15.666;2024-02-26T02:30:29;97309.53;;;4.13;100.00
55217;BME280;41086;46.736;15.666;2024-02-26T02:32:58;97300.03;;;3.82;100.00
55217;BME280;41086;46.736;15.666;2024-02-26T02:35:28;97303.91;;;4.05;100.00
55217;BME280;41086;46.736;15.666;2024-02-26T02:37:57;97304.94;;;4.03;100.00
55217;BME280;41086;46.736;15.666;2024-02-26T02:40:25;97307.06;;;3.96;100.00
55217;BME280;41086;46.736;15.666;2024-02-26T02:42:52;97239.56;;;3.85;100.00
55217;BME280;41086;46.736;15.666;2024-02-26T02:45:18;97299.47;;;4.20;100.00
55217;BME280;41086;46.736;15.666;2024-02-26T02:47:46;97297.22;;;3.71;100.00
55217;BME280;41086;46.736;15.666;2024-02-26T02:50:13;97301.75;;;3.83;100.00
55217;BME280;41086;46.736;15.666;2024-02-26T02:52:40;97296.38;;;3.56;100.00
55217;BME280;41086;46.736;15.666;2024-02-26T02:55:07;97296.03;;;2.86;100.00
55217;BME280;41086;46.736;15.666;2024-02-26T02:57:34;97295.97;;;2.72;100.00
55217;BME280;41086;46.736;15.666;2024-02-26T03:00:08;97301.91;;;3.05;100.00
55217;BME280;41086;46.736;15.666;2024-02-26T03:02:35;97291.72;;;3.31;100.00
55217;BME280;41086;46.736;15.666;2024-02-26T03:05:03;97294.78;;;3.68;100.00
55217;BME280;41086;46.736;15.666;2024-02-26T03:07:30;97295.94;;;3.92;100.00
55217;BME280;41086;46.736;15.666;2024-02-26T03:09:57;97299.69;;;4.03;100.00
55217;BME280;41086;46.736;15.666;2024-02-26T03:12:24;97291.94;;;4.15;100.00
55217;BME280;41086;46.736;15.666;2024-02-26T03:14:51;97290.50;;;4.24;100.00
55217;BME280;41086;46.736;15.666;2024-02-26T03:17:21;97288.34;;;4.31;100.00
55217;BME280;41086;46.736;15.666;2024-02-26T03:19:49;97296.09;;;4.18;100.00
55217;BME280;41086;46.736;15.666;2024-02-26T03:22:19;97292.38;;;4.08;100.00
55217;BME280;41086;46.736;15.666;2024-02-26T03:24:47;97290.56;;;4.51;100.00
55217;BME280;41086;46.736;15.666;2024-02-26T03:27:14;97289.66;;;4.09;100.00
55217;BME280;41086;46.736;15.666;2024-02-26T03:29:41;97291.34;;;3.67;100.00
55217;BME280;41086;46.736;15.666;2024-02-26T03:32:08;97301.06;;;3.21;100.00
55217;BME280;41086;46.736;15.666;2024-02-26T03:34:35;97285.00;;;3.41;100.00
55217;BME280;41086;46.736;15.666;2024-02-26T03:37:02;97288.81;;;3.94;100.00
55217;BME280;41086;46.736;15.666;2024-02-26T03:39:29;97276.47;;;4.11;100.00
55217;BME280;41086;46.736;15.666;2024-02-26T03:41:56;97232.66;;;3.70;100.00
55217;BME280;41086;46.736;15.666;2024-02-26T03:44:22;97179.41;;;3.55;100.00
55217;BME280;41086;46.736;15.666;2024-02-26T03:46:49;97276.56;;;3.81;100.00
55217;BME280;41086;46.736;15.666;2024-02-26T03:49:16;97228.75;;;3.18;100.00
55217;BME280;41086;46.736;15.666;2024-02-26T03:51:43;97269.09;;;3.44;100.00
55217;BME280;41086;46.736;15.666;2024-02-26T03:54:10;97264.56;;;3.91;100.00
55217;BME280;41086;46.736;15.666;2024-02-26T03:56:37;97258.66;;;4.30;100.00
55217;BME280;41086;46.736;15.666;2024-02-26T03:59:03;97279.59;;;4.44;100.00
55217;BME280;41086;46.736;15.666;2024-02-26T04:01:30;97278.19;;;4.39;100.00
55217;BME280;41086;46.736;15.666;2024-02-26T04:03:57;97277.13;;;4.56;100.00
55217;BME280;41086;46.736;15.666;2024-02-26T04:06:24;97269.06;;;4.03;98.70
55217;BME280;41086;46.736;15.666;2024-02-26T04:08:51;97282.69;;;3.37;100.00
55217;BME280;41086;46.736;15.666;2024-02-26T04:11:18;97256.44;;;2.92;100.00
55217;BME280;41086;46.736;15.666;2024-02-26T04:13:45;97266.84;;;3.24;100.00
55217;BME280;41086;46.736;15.666;2024-02-26T04:16:13;97269.22;;;2.66;100.00
55217;BME280;41086;46.736;15.666;2024-02-26T04:18:40;97278.50;;;2.72;100.00
55217;BME280;41086;46.736;15.666;2024-02-26T04:21:07;97275.63;;;2.77;100.00
55217;BME280;41086;46.736;15.666;2024-02-26T04:23:34;97278.50;;;2.72;100.00
55217;BME280;41086;46.736;15.666;2024-02-26T04:26:01;97271.03;;;2.96;100.00
55217;BME280;41086;46.736;15.666;2024-02-26T04:28:28;97271.56;;;2.71;100.00
55217;BME280;41086;46.736;15.666;2024-02-26T04:30:57;97266.00;;;2.14;100.00
55217;BME280;41086;46.736;15.666;2024-02-26T04:33:24;97260.28;;;2.07;100.00
55217;BME280;41086;46.736;15.666;2024-02-26T04:35:51;97274.28;;;2.38;100.00
55217;BME280;41086;46.736;15.666;2024-02-26T04:38:18;97280.88;;;2.29;100.00
55217;BME280;41086;46.736;15.666;2024-02-26T04:40:45;97270.56;;;2.10;100.00
55217;BME280;41086;46.736;15.666;2024-02-26T04:43:13;97234.19;;;1.90;100.00
55217;BME280;41086;46.736;15.666;2024-02-26T04:45:41;97272.50;;;2.38;100.00
55217;BME280;41086;46.736;15.666;2024-02-26T04:48:07;97255.81;;;2.41;100.00
55217;BME280;41086;46.736;15.666;2024-02-26T04:50:34;97246.13;;;2.43;100.00
55217;BME280;41086;46.736;15.666;2024-02-26T04:53:01;97281.34;;;2.99;100.00
55217;BME280;41086;46.736;15.666;2024-02-26T04:55:28;97261.97;;;3.18;100.00
55217;BME280;41086;46.736;15.666;2024-02-26T04:57:55;97266.78;;;3.40;100.00
55217;BME280;41086;46.736;15.666;2024-02-26T05:00:21;97279.19;;;3.36;100.00
55217;BME280;41086;46.736;15.666;2024-02-26T05:02:48;97271.50;;;3.33;100.00
55217;BME280;41086;46.736;15.666;2024-02-26T05:05:15;97276.22;;;3.42;100.00
55217;BME280;41086;46.736;15.666;2024-02-26T05:07:42;97278.13;;;3.24;100.00
55217;BME280;41086;46.736;15.666;2024-02-26T05:10:10;97277.31;;;3.38;100.00
55217;BME280;41086;46.736;15.666;2024-02-26T05:12:37;97233.31;;;3.15;100.00
55217;BME280;41086;46.736;15.666;2024-02-26T05:15:04;97198.41;;;3.00;100.00
55217;BME280;41086;46.736;15.666;2024-02-26T05:17:32;97266.00;;;3.38;100.00
55217;BME280;41086;46.736;15.666;2024-02-26T05:19:59;97273.03;;;3.37;100.00
55217;BME280;41086;46.736;15.666;2024-02-26T05:22:26;97270.03;;;3.29;100.00
55217;BME280;41086;46.736;15.666;2024-02-26T05:24:52;97271.09;;;3.10;100.00
55217;BME280;41086;46.736;15.666;2024-02-26T05:27:20;97269.97;;;3.15;100.00
55217;BME280;41086;46.736;15.666;2024-02-26T05:29:47;97273.88;;;3.07;100.00
55217;BME280;41086;46.736;15.666;2024-02-26T05:32:14;97280.59;;;2.81;100.00
55217;BME280;41086;46.736;15.666;2024-02-26T05:34:41;97286.06;;;2.77;100.00
55217;BME280;41086;46.736;15.666;2024-02-26T05:37:08;97277.97;;;2.81;100.00
55217;BME280;41086;46.736;15.666;2024-02-26T05:39:35;97278.09;;;2.64;100.00
55217;BME280;41086;46.736;15.666;2024-02-26T05:42:02;97263.88;;;1.89;100.00
55217;BME280;41086;46.736;15.666;2024-02-26T05:44:29;97274.84;;;2.11;100.00
55217;BME280;41086;46.736;15.666;2024-02-26T05:46:55;97286.94;;;2.30;100.00
55217;BME280;41086;46.736;15.666;2024-02-26T05:49:22;97286.94;;;2.61;100.00
55217;BME280;41086;46.736;15.666;2024-02-26T05:51:49;97283.22;;;2.81;100.00
55217;BME280;41086;46.736;15.666;2024-02-26T05:54:16;97288.13;;;2.56;100.00
55217;BME280;41086;46.736;15.666;2024-02-26T05:56:43;97297.72;;;1.74;100.00
55217;BME280;41086;46.736;15.666;2024-02-26T05:59:10;97291.66;;;1.57;100.00
55217;BME280;41086;46.736;15.666;2024-02-26T06:01:37;97287.03;;;2.28;100.00
55217;BME280;41086;46.736;15.666;2024-02-26T06:04:04;97288.63;;;2.62;100.00
55217;BME280;41086;46.736;15.666;2024-02-26T06:06:31;97296.88;;;3.02;100.00
55217;BME280;41086;46.736;15.666;2024-02-26T06:08:58;97295.88;;;2.57;100.00
55217;BME280;41086;46.736;15.666;2024-02-26T06:11:25;97282.72;;;2.59;100.00
55217;BME280;41086;46.736;15.666;2024-02-26T06:13:52;97291.03;;;2.97;100.00
55217;BME280;41086;46.736;15.666;2024-02-26T06:16:19;97278.56;;;3.17;100.00
55217;BME280;41086;46.736;15.666;2024-02-26T06:18:45;97305.06;;;3.57;100.00
55217;BME280;41086;46.736;15.666;2024-02-26T06:21:12;97294.22;;;3.63;100.00
55217;BME280;41086;46.736;15.666;2024-02-26T06:23:39;97309.22;;;3.75;100.00
55217;BME280;41086;46.736;15.666;2024-02-26T06:26:07;97308.97;;;4.08;100.00
55217;BME280;41086;46.736;15.666;2024-02-26T06:28:34;97297.97;;;4.02;100.00
55217;BME280;41086;46.736;15.666;2024-02-26T06:31:02;97304.94;;;3.88;100.00
55217;BME280;41086;46.736;15.666;2024-02-26T06:33:29;97304.72;;;4.20;100.00
55217;BME280;41086;46.736;15.666;2024-02-26T06:35:56;97313.44;;;3.92;100.00
55217;BME280;41086;46.736;15.666;2024-02-26T06:38:23;97313.81;;;4.14;100.00
55217;BME280;41086;46.736;15.666;2024-02-26T06:40:50;97312.78;;;4.31;100.00
55217;BME280;41086;46.736;15.666;2024-02-26T06:43:16;97310.25;;;3.87;100.00
55217;BME280;41086;46.736;15.666;2024-02-26T06:45:43;97326.41;;;3.65;100.00
55217;BME280;41086;46.736;15.666;2024-02-26T06:48:10;97338.38;;;3.24;100.00
55217;BME280;41086;46.736;15.666;2024-02-26T06:50:37;97335.28;;;3.18;100.00
55217;BME280;41086;46.736;15.666;2024-02-26T06:53:04;97339.94;;;3.43;100.00
55217;BME280;41086;46.736;15.666;2024-02-26T06:55:31;97325.63;;;4.07;100.00
55217;BME280;41086;46.736;15.666;2024-02-26T06:57:57;97320.84;;;4.42;100.00
55217;BME280;41086;46.736;15.666;2024-02-26T07:00:25;97332.53;;;4.93;100.00
55217;BME280;41086;46.736;15.666;2024-02-26T07:02:51;97303.59;;;5.07;100.00
55217;BME280;41086;46.736;15.666;2024-02-26T07:05:18;97338.81;;;5.44;100.00
55217;BME280;41086;46.736;15.666;2024-02-26T07:07:46;97335.16;;;5.47;99.02
55217;BME280;41086;46.736;15.666;2024-02-26T07:10:13;97336.69;;;5.89;100.00
55217;BME280;41086;46.736;15.666;2024-02-26T07:12:40;97343.44;;;6.32;100.00
55217;BME280;41086;46.736;15.666;2024-02-26T07:15:07;97342.53;;;6.70;100.00
55217;BME280;41086;46.736;15.666;2024-02-26T07:17:34;97339.91;;;7.06;100.00
55217;BME280;41086;46.736;15.666;2024-02-26T07:20:02;97344.50;;;7.40;98.58
55217;BME280;41086;46.736;15.666;2024-02-26T07:22:36;97323.66;;;7.72;97.92
55217;BME280;41086;46.736;15.666;2024-02-26T07:25:03;97319.50;;;8.03;96.35
55217;BME280;41086;46.736;15.666;2024-02-26T07:27:30;97347.38;;;8.18;84.98
55217;BME280;41086;46.736;15.666;2024-02-26T07:29:56;97352.88;;;8.15;88.55
55217;BME280;41086;46.736;15.666;2024-02-26T07:32:23;97348.28;;;8.53;87.50
55217;BME280;41086;46.736;15.666;2024-02-26T07:34:50;97344.19;;;8.82;86.09
55217;BME280;41086;46.736;15.666;2024-02-26T07:37:17;97342.94;;;8.98;84.21
55217;BME280;41086;46.736;15.666;2024-02-26T07:39:44;97353.91;;;9.37;82.56
55217;BME280;41086;46.736;15.666;2024-02-26T07:42:11;97352.53;;;9.53;76.52
55217;BME280;41086;46.736;15.666;2024-02-26T07:44:38;97353.91;;;9.37;80.36
55217;BME280;41086;46.736;15.666;2024-02-26T07:47:04;97362.63;;;9.81;81.42
55217;BME280;41086;46.736;15.666;2024-02-26T07:49:31;97356.75;;;10.19;81.61
55217;BME280;41086;46.736;15.666;2024-02-26T07:52:01;97354.34;;;10.58;78.19
55217;BME280;41086;46.736;15.666;2024-02-26T07:54:28;97357.66;;;10.81;75.45
55217;BME280;41086;46.736;15.666;2024-02-26T07:56:55;97362.19;;;11.09;73.82
55217;BME280;41086;46.736;15.666;2024-02-26T07:59:22;97361.03;;;11.43;71.67
55217;BME280;41086;46.736;15.666;2024-02-26T08:01:50;97363.66;;;11.52;69.29
55217;BME280;41086;46.736;15.666;2024-02-26T08:04:23;97369.41;;;11.67;68.76
55217;BME280;41086;46.736;15.666;2024-02-26T08:06:49;97370.28;;;11.87;66.97
55217;BME280;41086;46.736;15.666;2024-02-26T08:09:17;97381.16;;;11.94;67.30
55217;BME280;41086;46.736;15.666;2024-02-26T08:11:44;97375.69;;;12.15;67.70
55217;BME280;41086;46.736;15.666;2024-02-26T08:14:10;97376.25;;;12.28;67.86
55217;BME280;41086;46.736;15.666;2024-02-26T08:16:37;97376.91;;;12.40;65.35
55217;BME280;41086;46.736;15.666;2024-02-26T08:19:04;97369.28;;;12.64;64.88
55217;BME280;41086;46.736;15.666;2024-02-26T08:21:31;97368.25;;;12.75;63.89
55217;BME280;41086;46.736;15.666;2024-02-26T08:23:58;97371.44;;;12.89;63.08
55217;BME280;41086;46.736;15.666;2024-02-26T08:26:24;97378.34;;;13.09;62.83
55217;BME280;41086;46.736;15.666;2024-02-26T08:28:51;97375.34;;;13.22;61.15
55217;BME280;41086;46.736;15.666;2024-02-26T08:31:18;97369.63;;;13.17;60.43
55217;BME280;41086;46.736;15.666;2024-02-26T08:33:45;97372.44;;;13.15;60.39
55217;BME280;41086;46.736;15.666;2024-02-26T08:36:12;97365.38;;;13.24;60.56
55217;BME280;41086;46.736;15.666;2024-02-26T08:38:39;97368.47;;;13.29;60.96
55217;BME280;41086;46.736;15.666;2024-02-26T08:41:06;97376.00;;;13.51;60.85
55217;BME280;41086;46.736;15.666;2024-02-26T08:43:33;97378.59;;;13.97;60.19
55217;BME280;41086;46.736;15.666;2024-02-26T08:45:59;97376.56;;;14.35;59.45
55217;BME280;41086;46.736;15.666;2024-02-26T08:48:26;97373.69;;;14.72;57.01
55217;BME280;41086;46.736;15.666;2024-02-26T08:50:53;97370.41;;;14.87;57.26
55217;BME280;41086;46.736;15.666;2024-02-26T08:53:20;97380.84;;;15.06;55.45
55217;BME280;41086;46.736;15.666;2024-02-26T08:55:57;97394.06;;;15.16;54.22
55217;BME280;41086;46.736;15.666;2024-02-26T08:58:24;97382.97;;;15.37;54.06
55217;BME280;41086;46.736;15.666;2024-02-26T09:00:51;97376.53;;;15.56;54.25
55217;BME280;41086;46.736;15.666;2024-02-26T09:03:17;97350.25;;;15.35;50.35
55217;BME280;41086;46.736;15.666;2024-02-26T09:05:44;97386.34;;;15.55;53.33
55217;BME280;41086;46.736;15.666;2024-02-26T09:08:11;97379.00;;;15.57;50.00
55217;BME280;41086;46.736;15.666;2024-02-26T09:10:38;97378.19;;;15.65;51.26
55217;BME280;41086;46.736;15.666;2024-02-26T09:13:05;97368.56;;;15.72;49.50
55217;BME280;41086;46.736;15.666;2024-02-26T09:15:32;97381.25;;;15.78;49.03
55217;BME280;41086;46.736;15.666;2024-02-26T09:17:59;97376.63;;;15.97;49.64
55217;BME280;41086;46.736;15.666;2024-02-26T09:20:26;97381.13;;;16.12;44.97
55217;BME280;41086;46.736;15.666;2024-02-26T09:22:53;97381.78;;;16.06;46.59
55217;BME280;41086;46.736;15.666;2024-02-26T09:25:20;97378.94;;;16.08;46.31
55217;BME280;41086;46.736;15.666;2024-02-26T09:27:47;97373.41;;;16.26;45.99
55217;BME280;41086;46.736;15.666;2024-02-26T09:30:14;97374.28;;;16.02;45.40
55217;BME280;41086;46.736;15.666;2024-02-26T09:32:41;97376.66;;;15.46;45.26
55217;BME280;41086;46.736;15.666;2024-02-26T09:35:12;97376.09;;;15.93;44.73
55217;BME280;41086;46.736;15.666;2024-02-26T09:37:39;97387.47;;;16.28;44.89
55217;BME280;41086;46.736;15.666;2024-02-26T09:40:07;97366.53;;;16.64;44.74
55217;BME280;41086;46.736;15.666;2024-02-26T09:42:34;97377.25;;;16.64;43.12
55217;BME280;41086;46.736;15.666;2024-02-26T09:45:05;97386.97;;;16.40;43.08
55217;BME280;41086;46.736;15.666;2024-02-26T09:47:35;97373.59;;;16.32;42.50
55217;BME280;41086;46.736;15.666;2024-02-26T09:50:03;97381.91;;;16.62;43.21
55217;BME280;41086;46.736;15.666;2024-02-26T09:52:33;97379.44;;;16.28;44.31
55217;BME280;41086;46.736;15.666;2024-02-26T09:55:00;97376.06;;;16.67;44.17
55217;BME280;41086;46.736;15.666;2024-02-26T09:57:26;97377.91;;;16.50;43.51
55217;BME280;41086;46.736;15.666;2024-02-26T09:59:59;97375.84;;;16.93;43.87
55217;BME280;41086;46.736;15.666;2024-02-26T10:02:30;97393.53;;;17.49;43.30
55217;BME280;41086;46.736;15.666;2024-02-26T10:04:59;97380.91;;;17.27;42.64
55217;BME280;41086;46.736;15.666;2024-02-26T10:07:28;97384.25;;;17.60;42.42
55217;BME280;41086;46.736;15.666;2024-02-26T10:09:56;97381.16;;;17.80;42.11
55217;BME280;41086;46.736;15.666;2024-02-26T10:12:23;97379.41;;;18.10;42.40
55217;BME280;41086;46.736;15.666;2024-02-26T10:14:52;97388.44;;;18.70;42.13
55217;BME280;41086;46.736;15.666;2024-02-26T10:17:20;97380.00;;;18.96;42.07
55217;BME280;41086;46.736;15.666;2024-02-26T10:19:46;97380.81;;;18.81;41.81
55217;BME280;41086;46.736;15.666;2024-02-26T10:22:13;97386.22;;;18.58;41.96
55217;BME280;41086;46.736;15.666;2024-02-26T10:24:40;97380.25;;;18.33;42.21
55217;BME280;41086;46.736;15.666;2024-02-26T10:27:08;97391.91;;;18.03;43.27
55217;BME280;41086;46.736;15.666;2024-02-26T10:29:35;97389.69;;;18.06;43.45
55217;BME280;41086;46.736;15.666;2024-02-26T10:32:02;97393.31;;;17.90;43.42
55217;BME280;41086;46.736;15.666;2024-02-26T10:34:30;97386.16;;;17.83;44.02
55217;BME280;41086;46.736;15.666;2024-02-26T10:37:01;97377.13;;;17.84;43.44
55217;BME280;41086;46.736;15.666;2024-02-26T10:39:28;97384.50;;;17.82;43.94
55217;BME280;41086;46.736;15.666;2024-02-26T10:41:55;97380.00;;;17.43;44.87
55217;BME280;41086;46.736;15.666;2024-02-26T10:44:22;97396.31;;;17.64;43.41
55217;BME280;41086;46.736;15.666;2024-02-26T10:46:48;97392.91;;;17.70;41.46
55217;BME280;41086;46.736;15.666;2024-02-26T10:49:17;97395.41;;;18.03;41.30
55217;BME280;41086;46.736;15.666;2024-02-26T10:51:52;97391.41;;;18.22;40.38
55217;BME280;41086;46.736;15.666;2024-02-26T10:54:21;97375.28;;;17.14;38.56
55217;BME280;41086;46.736;15.666;2024-02-26T10:56:50;97383.72;;;17.34;40.18
55217;BME280;41086;46.736;15.666;2024-02-26T10:59:18;97375.66;;;17.42;38.51
55217;BME280;41086;46.736;15.666;2024-02-26T11:01:48;97376.94;;;17.77;38.43
55217;BME280;41086;46.736;15.666;2024-02-26T11:04:16;97380.09;;;17.89;38.95
55217;BME280;41086;46.736;15.666;2024-02-26T11:06:45;97377.22;;;17.90;38.78
55217;BME280;41086;46.736;15.666;2024-02-26T11:09:14;97371.53;;;17.62;38.10
55217;BME280;41086;46.736;15.666;2024-02-26T11:11:42;97368.16;;;17.37;38.78
55217;BME280;41086;46.736;15.666;2024-02-26T11:14:09;97361.84;;;17.22;39.21
55217;BME280;41086;46.736;15.666;2024-02-26T11:16:40;97362.34;;;16.86;39.51
55217;BME280;41086;46.736;15.666;2024-02-26T11:19:10;97372.50;;;17.38;39.78
55217;BME280;41086;46.736;15.666;2024-02-26T11:21:39;97359.16;;;17.30;39.12
55217;BME280;41086;46.736;15.666;2024-02-26T11:24:12;97364.25;;;17.09;38.05
55217;BME280;41086;46.736;15.666;2024-02-26T11:26:46;97362.84;;;16.73;38.62
55217;BME280;41086;46.736;15.666;2024-02-26T11:29:21;97357.78;;;17.34;38.91
55217;BME280;41086;46.736;15.666;2024-02-26T11:31:48;97342.88;;;17.32;38.38
55217;BME280;41086;46.736;15.666;2024-02-26T11:34:16;97359.34;;;17.83;38.17
55217;BME280;41086;46.736;15.666;2024-02-26T11:36:45;97355.63;;;17.92;36.61
55217;BME280;41086;46.736;15.666;2024-02-26T11:39:12;97342.06;;;17.31;35.79
55217;BME280;41086;46.736;15.666;2024-02-26T11:41:43;97357.03;;;16.53;37.90
55217;BME280;41086;46.736;15.666;2024-02-26T11:44:10;97347.59;;;16.90;35.99
55217;BME280;41086;46.736;15.666;2024-02-26T11:46:41;97347.44;;;18.08;36.29
55217;BME280;41086;46.736;15.666;2024-02-26T11:51:55;97350.38;;;18.89;33.89
55217;BME280;41086;46.736;15.666;2024-02-26T11:54:51;97343.31;;;19.54;34.19
55217;BME280;41086;46.736;15.666;2024-02-26T11:57:24;97337.53;;;17.63;35.09
55217;BME280;41086;46.736;15.666;2024-02-26T11:59:52;97341.81;;;17.10;36.23
55217;BME280;41086;46.736;15.666;2024-02-26T12:05:16;97328.06;;;16.81;38.05
55217;BME280;41086;46.736;15.666;2024-02-26T12:07:45;97327.66;;;17.01;36.85
55217;BME280;41086;46.736;15.666;2024-02-26T12:13:10;97321.22;;;16.62;36.93
55217;BME280;41086;46.736;15.666;2024-02-26T12:18:17;97304.94;;;15.67;39.89
55217;BME280;41086;46.736;15.666;2024-02-26T12:20:44;97314.97;;;16.14;38.33
55217;BME280;41086;46.736;15.666;2024-02-26T12:23:16;97322.25;;;16.61;37.26
55217;BME280;41086;46.736;15.666;2024-02-26T12:25:44;97325.72;;;16.70;36.88
55217;BME280;41086;46.736;15.666;2024-02-26T12:28:11;97323.91;;;16.62;38.44
55217;BME280;41086;46.736;15.666;2024-02-26T12:30:37;97319.28;;;16.40;37.61
55217;BME280;41086;46.736;15.666;2024-02-26T12:33:04;97322.50;;;15.94;37.65
55217;BME280;41086;46.736;15.666;2024-02-26T12:35:34;97321.66;;;16.18;38.94
55217;BME280;41086;46.736;15.666;2024-02-26T12:38:01;97315.47;;;16.26;37.91
55217;BME280;41086;46.736;15.666;2024-02-26T12:40:31;97330.56;;;17.22;36.51
55217;BME280;41086;46.736;15.666;2024-02-26T12:42:58;97333.47;;;17.13;35.77
55217;BME280;41086;46.736;15.666;2024-02-26T12:45:25;97333.63;;;17.11;39.65
55217;BME280;41086;46.736;15.666;2024-02-26T12:47:53;97338.78;;;17.21;36.82
55217;BME280;41086;46.736;15.666;2024-02-26T12:50:19;97337.84;;;17.37;38.03
55217;BME280;41086;46.736;15.666;2024-02-26T12:52:47;97326.06;;;16.75;36.60
55217;BME280;41086;46.736;15.666;2024-02-26T12:55:15;97342.16;;;17.46;35.76
55217;BME280;41086;46.736;15.666;2024-02-26T12:57:44;97333.06;;;17.78;34.65
55217;BME280;41086;46.736;15.666;2024-02-26T13:00:16;97341.44;;;18.06;34.24
55217;BME280;41086;46.736;15.666;2024-02-26T13:02:45;97341.53;;;18.66;34.63
55217;BME280;41086;46.736;15.666;2024-02-26T13:05:13;97343.88;;;18.98;32.83